createdAt,value
2023-03-29T00:00:14.648Z,4.0000
2023-03-29T00:01:35.051Z,4.0000
2023-03-29T00:02:17.918Z,4.0000
2023-03-29T00:03:19.729Z,4.0000
2023-03-29T00:04:21.226Z,4.0462
2023-03-29T00:05:22.853Z,4.0923
2023-03-29T00:06:24.532Z,4.0000
2023-03-29T00:07:26.183Z,4.0308
2023-03-29T00:08:27.836Z,4.0154
2023-03-29T00:09:29.484Z,4.0000
2023-03-29T00:10:31.120Z,4.0462
2023-03-29T00:11:32.800Z,4.1077
2023-03-29T00:12:34.428Z,4.1231
2023-03-29T00:13:36.128Z,4.0923
2023-03-29T00:14:37.734Z,4.1385
2023-03-29T00:15:39.405Z,4.0923
2023-03-29T00:16:41.071Z,4.0615
2023-03-29T00:17:42.767Z,4.1538
2023-03-29T00:18:44.385Z,4.0462
2023-03-29T00:19:46.023Z,4.1385
2023-03-29T00:20:47.666Z,4.2000
2023-03-29T00:21:49.322Z,4.1846
2023-03-29T00:22:50.967Z,4.2000
2023-03-29T00:23:52.670Z,4.1538
2023-03-29T00:24:54.319Z,4.1231
2023-03-29T00:25:55.957Z,4.1692
2023-03-29T00:26:57.610Z,4.1692
2023-03-29T00:27:59.268Z,4.1846
2023-03-29T00:29:00.943Z,4.2000
2023-03-29T00:30:02.570Z,4.2000
2023-03-29T00:31:04.430Z,4.2000
2023-03-29T00:32:05.877Z,4.2000
2023-03-29T00:33:07.554Z,4.2308
2023-03-29T00:34:09.199Z,4.2769
2023-03-29T00:35:10.825Z,4.2154
2023-03-29T00:36:12.497Z,4.2000
2023-03-29T00:37:14.112Z,4.2000
2023-03-29T00:38:15.798Z,4.2000
2023-03-29T00:39:17.449Z,4.2000
2023-03-29T00:40:19.099Z,4.2000
2023-03-29T00:41:20.734Z,4.2000
2023-03-29T00:42:22.407Z,4.2462
2023-03-29T00:43:24.041Z,4.2000
2023-03-29T00:44:25.744Z,4.2154
2023-03-29T00:45:27.354Z,4.2615
2023-03-29T00:46:29.108Z,4.2154
2023-03-29T00:47:30.671Z,4.2154
2023-03-29T00:48:32.383Z,4.2462
2023-03-29T00:49:33.994Z,4.2769
2023-03-29T00:50:35.647Z,4.3846
2023-03-29T00:51:37.291Z,4.3538
2023-03-29T00:52:38.950Z,4.3538
2023-03-29T00:53:40.580Z,4.2000
2023-03-29T00:54:42.294Z,4.2000
2023-03-29T00:55:43.895Z,4.2154
2023-03-29T00:56:45.578Z,4.2000
2023-03-29T00:57:47.200Z,4.2000
2023-03-29T00:58:48.871Z,4.3385
2023-03-29T00:59:50.579Z,4.3846
2023-03-29T01:00:52.206Z,4.2769
2023-03-29T01:01:53.871Z,4.3231
2023-03-29T01:02:55.538Z,4.2769
2023-03-29T01:03:57.154Z,4.4000
2023-03-29T01:04:58.817Z,4.3231
2023-03-29T01:06:00.462Z,4.3231
2023-03-29T01:07:02.159Z,4.2923
2023-03-29T01:08:03.757Z,4.4000
2023-03-29T01:09:05.419Z,4.4000
2023-03-29T01:10:07.085Z,4.2462
2023-03-29T01:11:08.735Z,4.3385
2023-03-29T01:12:10.388Z,4.3846
2023-03-29T01:13:12.043Z,4.4000
2023-03-29T01:14:13.684Z,4.3846
2023-03-29T01:15:15.398Z,4.4000
2023-03-29T01:16:17.094Z,4.4000
2023-03-29T01:17:18.683Z,4.3692
2023-03-29T01:18:20.307Z,4.3692
2023-03-29T01:19:21.977Z,4.3846
2023-03-29T01:20:23.635Z,4.3846
2023-03-29T01:21:25.285Z,4.4000
2023-03-29T01:22:26.931Z,4.3846
2023-03-29T01:23:28.599Z,4.2615
2023-03-29T01:24:30.225Z,4.4000
2023-03-29T01:25:31.918Z,4.4000
2023-03-29T01:26:33.540Z,4.3692
2023-03-29T01:27:35.208Z,4.4000
2023-03-29T01:28:36.847Z,4.4000
2023-03-29T01:29:38.507Z,4.4000
2023-03-29T01:30:40.173Z,4.4154
2023-03-29T01:31:41.902Z,4.4154
2023-03-29T01:32:43.450Z,4.5231
2023-03-29T01:33:45.142Z,4.5231
2023-03-29T01:34:46.802Z,4.4154
2023-03-29T01:35:48.521Z,4.4308
2023-03-29T01:36:50.073Z,4.4462
2023-03-29T01:37:51.760Z,4.4615
2023-03-29T01:38:53.401Z,4.3846
2023-03-29T01:39:55.061Z,4.4000
2023-03-29T01:40:56.722Z,4.4000
2023-03-29T01:41:58.367Z,4.3846
2023-03-29T01:43:00.024Z,4.4000
2023-03-29T01:44:01.692Z,4.4000
2023-03-29T01:45:03.325Z,4.6923
2023-03-29T01:46:05.454Z,5.4154
2023-03-29T01:47:06.630Z,3.8000
2023-03-29T01:48:08.303Z,4.2000
2023-03-29T01:49:09.950Z,3.3692
2023-03-29T01:50:11.620Z,4.0923
2023-03-29T01:51:13.316Z,3.3538
2023-03-29T01:52:14.941Z,3.2923
2023-03-29T01:53:16.572Z,3.0154
2023-03-29T01:54:18.245Z,3.1692
2023-03-29T01:55:19.879Z,3.0308
2023-03-29T01:56:21.571Z,3.2308
2023-03-29T01:57:23.276Z,3.3077
2023-03-29T01:58:24.861Z,3.0615
2023-03-29T01:59:26.500Z,2.8308
2023-03-29T02:00:28.152Z,3.0615
2023-03-29T02:01:29.841Z,3.5077
2023-03-29T02:02:31.560Z,3.4154
2023-03-29T02:03:33.199Z,3.2308
2023-03-29T02:04:34.796Z,3.6769
2023-03-29T02:05:36.409Z,3.4000
2023-03-29T02:06:38.100Z,3.7077
2023-03-29T02:07:39.713Z,3.6308
2023-03-29T02:08:41.386Z,3.4769
2023-03-29T02:09:43.022Z,3.7077
2023-03-29T02:10:44.692Z,3.9385
2023-03-29T02:11:46.353Z,4.0923
2023-03-29T02:12:48.001Z,4.0923
2023-03-29T02:13:49.641Z,3.7692
2023-03-29T02:14:51.304Z,4.5077
2023-03-29T02:15:53.117Z,4.1077
2023-03-29T02:16:54.633Z,4.1385
2023-03-29T02:17:56.262Z,3.7231
2023-03-29T02:18:57.933Z,4.3385
2023-03-29T02:19:59.549Z,3.6923
2023-03-29T02:21:01.441Z,3.9538
2023-03-29T02:22:02.892Z,4.1692
2023-03-29T02:23:04.537Z,4.2462
2023-03-29T02:24:06.156Z,4.4769
2023-03-29T02:25:07.841Z,4.3846
2023-03-29T02:26:09.460Z,4.5077
2023-03-29T02:27:11.178Z,4.5846
2023-03-29T02:28:12.781Z,4.4923
2023-03-29T02:29:14.446Z,4.4923
2023-03-29T02:30:16.083Z,5.0154
2023-03-29T02:31:17.788Z,4.3692
2023-03-29T02:32:19.405Z,4.6000
2023-03-29T02:33:21.048Z,4.9231
2023-03-29T02:34:22.756Z,4.4769
2023-03-29T02:35:24.359Z,4.8154
2023-03-29T02:36:25.987Z,4.7077
2023-03-29T02:37:27.686Z,4.7385
2023-03-29T02:38:29.303Z,4.6000
2023-03-29T02:39:30.972Z,4.8462
2023-03-29T02:40:32.609Z,4.7231
2023-03-29T02:41:34.262Z,4.6923
2023-03-29T02:42:35.949Z,4.8615
2023-03-29T02:43:37.572Z,4.7692
2023-03-29T02:44:39.278Z,4.7692
2023-03-29T02:45:40.936Z,4.8615
2023-03-29T02:46:42.691Z,4.7077
2023-03-29T02:47:44.364Z,4.7077
2023-03-29T02:48:45.887Z,4.8462
2023-03-29T02:49:50.343Z,4.7692
2023-03-29T02:50:49.215Z,4.7077
2023-03-29T02:51:50.844Z,4.7692
2023-03-29T02:52:52.562Z,4.7077
2023-03-29T02:53:54.148Z,4.6154
2023-03-29T02:54:55.829Z,4.8000
2023-03-29T02:55:57.449Z,4.8000
2023-03-29T02:56:59.160Z,4.6615
2023-03-29T02:58:00.780Z,4.8769
2023-03-29T02:59:02.433Z,4.7538
2023-03-29T03:00:04.075Z,4.8462
2023-03-29T03:01:05.730Z,4.7692
2023-03-29T03:02:07.435Z,4.8000
2023-03-29T03:03:09.214Z,4.8769
2023-03-29T03:04:10.749Z,4.7846
2023-03-29T03:05:12.352Z,4.8769
2023-03-29T03:06:14.931Z,4.8462
2023-03-29T03:07:15.663Z,4.8462
2023-03-29T03:08:17.304Z,4.7538
2023-03-29T03:09:18.949Z,4.7846
2023-03-29T03:10:20.601Z,4.7231
2023-03-29T03:11:22.260Z,4.8923
2023-03-29T03:12:23.902Z,4.7538
2023-03-29T03:13:25.590Z,4.7538
2023-03-29T03:14:27.209Z,4.8923
2023-03-29T03:15:28.875Z,4.8769
2023-03-29T03:16:30.588Z,4.8000
2023-03-29T03:17:32.195Z,4.6308
2023-03-29T03:18:33.998Z,4.9385
2023-03-29T03:19:35.485Z,4.8154
2023-03-29T03:20:37.095Z,4.7077
2023-03-29T03:21:38.786Z,4.7692
2023-03-29T03:22:40.420Z,4.8462
2023-03-29T03:23:42.123Z,4.8000
2023-03-29T03:24:43.704Z,4.7077
2023-03-29T03:25:45.366Z,4.7538
2023-03-29T03:26:47.016Z,4.8000
2023-03-29T03:27:48.691Z,4.8462
2023-03-29T03:28:50.351Z,4.8000
2023-03-29T03:29:51.982Z,4.8000
2023-03-29T03:30:53.640Z,4.8615
2023-03-29T03:31:55.310Z,4.7385
2023-03-29T03:32:56.953Z,4.7846
2023-03-29T03:33:58.594Z,4.7231
2023-03-29T03:35:00.216Z,4.8000
2023-03-29T03:36:01.983Z,4.7846
2023-03-29T03:37:03.522Z,4.8154
2023-03-29T03:38:05.195Z,4.7538
2023-03-29T03:39:06.841Z,4.7846
2023-03-29T03:40:08.495Z,4.7077
2023-03-29T03:41:10.133Z,4.8000
2023-03-29T03:42:11.804Z,4.6923
2023-03-29T03:43:13.434Z,4.6462
2023-03-29T03:44:15.134Z,4.6000
2023-03-29T03:45:16.745Z,4.7692
2023-03-29T03:46:18.500Z,4.8154
2023-03-29T03:47:20.046Z,4.7692
2023-03-29T03:48:21.726Z,4.8000
2023-03-29T03:49:23.408Z,4.6462
2023-03-29T03:50:25.024Z,4.6615
2023-03-29T03:51:26.666Z,4.6462
2023-03-29T03:52:28.336Z,4.6308
2023-03-29T03:53:29.973Z,4.7385
2023-03-29T03:54:31.664Z,4.7538
2023-03-29T03:55:33.309Z,4.6615
2023-03-29T03:56:34.964Z,4.6923
2023-03-29T03:57:36.584Z,4.6615
2023-03-29T03:58:38.254Z,4.7385
2023-03-29T03:59:39.919Z,4.6154
2023-03-29T04:00:41.563Z,4.6308
2023-03-29T04:01:43.208Z,4.8000
2023-03-29T04:02:44.904Z,4.6462
2023-03-29T04:03:46.543Z,4.6154
2023-03-29T04:04:48.188Z,4.6769
2023-03-29T04:05:49.812Z,4.6308
2023-03-29T04:06:51.497Z,4.6462
2023-03-29T04:07:53.121Z,4.6462
2023-03-29T04:08:54.792Z,4.6462
2023-03-29T04:09:56.462Z,4.6154
2023-03-29T04:10:58.107Z,4.6308
2023-03-29T04:11:59.745Z,4.6462
2023-03-29T04:13:01.462Z,4.6769
2023-03-29T04:14:03.056Z,4.7692
2023-03-29T04:15:04.748Z,4.6923
2023-03-29T04:16:06.392Z,4.6000
2023-03-29T04:17:08.052Z,4.6923
2023-03-29T04:18:09.757Z,4.6308
2023-03-29T04:19:11.349Z,4.6000
2023-03-29T04:20:13.015Z,4.6308
2023-03-29T04:21:14.648Z,4.6154
2023-03-29T04:22:16.284Z,4.6769
2023-03-29T04:23:17.975Z,4.6923
2023-03-29T04:24:19.604Z,4.6462
2023-03-29T04:25:21.294Z,4.6615
2023-03-29T04:26:22.915Z,4.6923
2023-03-29T04:27:24.565Z,4.6308
2023-03-29T04:28:26.253Z,4.6308
2023-03-29T04:29:27.853Z,4.6769
2023-03-29T04:30:29.546Z,4.6615
2023-03-29T04:31:31.272Z,4.6154
2023-03-29T04:32:32.855Z,4.6154
2023-03-29T04:33:34.472Z,4.6308
2023-03-29T04:34:36.140Z,4.6769
2023-03-29T04:35:37.851Z,4.6154
2023-03-29T04:36:39.453Z,4.6462
2023-03-29T04:37:41.078Z,4.6615
2023-03-29T04:38:46.097Z,4.6000
2023-03-29T04:39:44.380Z,4.6000
2023-03-29T04:40:46.072Z,4.6000
2023-03-29T04:41:47.687Z,4.7077
2023-03-29T04:42:49.365Z,4.6308
2023-03-29T04:43:51.000Z,4.6462
2023-03-29T04:44:52.698Z,4.4769
2023-03-29T04:45:54.379Z,2.9692
2023-03-29T04:46:55.992Z,3.0923
2023-03-29T04:47:57.663Z,4.0462
2023-03-29T04:48:59.317Z,4.8000
2023-03-29T04:50:00.912Z,5.6769
2023-03-29T04:51:02.777Z,6.8154
2023-03-29T04:52:04.226Z,7.5846
2023-03-29T04:53:05.896Z,4.6462
2023-03-29T04:54:07.530Z,6.1846
2023-03-29T04:55:09.232Z,5.6308
2023-03-29T04:56:10.858Z,4.9538
2023-03-29T04:57:12.559Z,4.8615
2023-03-29T04:58:14.121Z,4.5538
2023-03-29T04:59:15.795Z,4.0000
2023-03-29T05:00:17.463Z,3.4615
2023-03-29T05:01:19.171Z,2.9538
2023-03-29T05:02:20.736Z,2.3231
2023-03-29T05:03:22.418Z,2.2154
2023-03-29T05:04:24.065Z,2.2308
2023-03-29T05:05:25.732Z,2.2000
2023-03-29T05:06:27.376Z,1.9846
2023-03-29T05:07:29.085Z,2.1077
2023-03-29T05:08:30.664Z,2.0000
2023-03-29T05:09:35.037Z,2.1692
2023-03-29T05:10:33.977Z,1.9385
2023-03-29T05:11:35.678Z,2.1231
2023-03-29T05:12:37.285Z,2.2615
2023-03-29T05:13:38.937Z,2.2000
2023-03-29T05:14:40.589Z,2.2000
2023-03-29T05:15:42.267Z,2.1538
2023-03-29T05:16:43.999Z,2.0769
2023-03-29T05:17:45.576Z,2.3077
2023-03-29T05:18:47.214Z,2.3692
2023-03-29T05:19:48.883Z,2.3385
2023-03-29T05:20:50.535Z,2.4308
2023-03-29T05:21:52.219Z,2.3538
2023-03-29T05:22:53.858Z,2.3846
2023-03-29T05:23:55.503Z,2.4615
2023-03-29T05:24:57.135Z,2.4769
2023-03-29T05:25:58.808Z,2.3846
2023-03-29T05:27:00.468Z,2.2462
2023-03-29T05:28:02.112Z,2.4000
2023-03-29T05:29:03.749Z,2.4462
2023-03-29T05:30:05.422Z,2.3538
2023-03-29T05:31:07.068Z,2.4000
2023-03-29T05:32:08.857Z,2.3077
2023-03-29T05:33:10.405Z,2.3385
2023-03-29T05:34:12.032Z,2.4308
2023-03-29T05:35:13.661Z,2.4000
2023-03-29T05:36:15.408Z,2.4615
2023-03-29T05:37:17.024Z,2.4615
2023-03-29T05:38:18.648Z,2.5538
2023-03-29T05:39:20.283Z,2.4000
2023-03-29T05:40:21.966Z,2.5538
2023-03-29T05:41:23.622Z,2.6615
2023-03-29T05:42:25.283Z,2.5692
2023-03-29T05:43:26.898Z,2.4154
2023-03-29T05:44:28.581Z,2.2923
2023-03-29T05:45:30.276Z,2.4923
2023-03-29T05:46:31.896Z,2.4769
2023-03-29T05:47:33.637Z,2.4000
2023-03-29T05:48:35.303Z,2.5538
2023-03-29T05:49:36.852Z,2.5231
2023-03-29T05:50:38.476Z,2.6000
2023-03-29T05:51:40.145Z,2.6154
2023-03-29T05:52:41.810Z,2.7846
2023-03-29T05:53:43.466Z,2.7538
2023-03-29T05:54:45.135Z,2.7692
2023-03-29T05:55:46.782Z,2.7231
2023-03-29T05:56:48.456Z,2.6308
2023-03-29T05:57:50.106Z,2.6462
2023-03-29T05:58:53.657Z,2.6000
2023-03-29T05:59:53.411Z,2.6769
2023-03-29T06:00:55.010Z,2.8000
2023-03-29T06:01:56.734Z,2.7385
2023-03-29T06:03:03.780Z,2.6769
2023-03-29T06:04:00.102Z,2.7000
2023-03-29T06:05:01.657Z,2.7077
2023-03-29T06:06:03.310Z,2.8000
2023-03-29T06:07:04.934Z,2.7231
2023-03-29T06:08:06.631Z,2.7231
2023-03-29T06:09:08.250Z,2.6000
2023-03-29T06:10:09.918Z,2.7846
2023-03-29T06:11:11.543Z,2.2308
2023-03-29T06:12:13.216Z,2.4154
2023-03-29T06:13:14.878Z,2.7692
2023-03-29T06:14:16.516Z,2.8000
2023-03-29T06:15:18.156Z,2.8000
2023-03-29T06:16:19.839Z,2.8000
2023-03-29T06:17:21.457Z,2.6000
2023-03-29T06:18:23.180Z,2.2154
2023-03-29T06:19:24.764Z,2.1077
2023-03-29T06:20:26.447Z,1.9385
2023-03-29T06:21:28.063Z,1.8000
2023-03-29T06:22:29.754Z,2.1385
2023-03-29T06:23:31.411Z,2.1231
2023-03-29T06:24:33.044Z,1.9692
2023-03-29T06:25:34.699Z,2.0154
2023-03-29T06:26:36.349Z,2.0308
2023-03-29T06:27:38.008Z,2.0154
2023-03-29T06:28:39.702Z,2.0308
2023-03-29T06:29:41.298Z,1.9077
2023-03-29T06:30:42.962Z,2.0923
2023-03-29T06:31:44.668Z,1.9077
2023-03-29T06:32:46.332Z,2.0000
2023-03-29T06:33:47.931Z,1.9846
2023-03-29T06:34:49.600Z,2.1385
2023-03-29T06:35:51.305Z,2.0154
2023-03-29T06:36:52.888Z,1.9538
2023-03-29T06:37:54.562Z,1.8000
2023-03-29T06:38:56.240Z,1.8462
2023-03-29T06:39:57.841Z,1.6615
2023-03-29T06:40:59.610Z,1.7385
2023-03-29T06:42:10.057Z,1.8000
2023-03-29T06:43:02.804Z,1.7333
2023-03-29T06:44:04.450Z,1.7846
2023-03-29T06:45:06.138Z,1.8154
2023-03-29T06:46:07.790Z,1.8769
2023-03-29T06:47:09.528Z,1.8000
2023-03-29T06:48:11.171Z,1.8000
2023-03-29T06:49:12.869Z,1.8462
2023-03-29T06:50:14.445Z,1.9692
2023-03-29T06:51:16.118Z,2.0000
2023-03-29T06:52:17.744Z,1.9846
2023-03-29T06:53:19.415Z,1.8769
2023-03-29T06:54:21.142Z,2.0308
2023-03-29T06:55:22.721Z,2.0615
2023-03-29T06:56:24.370Z,2.0000
2023-03-29T06:57:26.177Z,1.8615
2023-03-29T06:58:27.662Z,1.8154
2023-03-29T06:59:29.368Z,1.8462
2023-03-29T07:00:30.988Z,1.9846
2023-03-29T07:01:32.651Z,2.0000
2023-03-29T07:02:34.285Z,2.0000
2023-03-29T07:03:35.959Z,2.0000
2023-03-29T07:04:37.670Z,2.0000
2023-03-29T07:05:39.311Z,2.0000
2023-03-29T07:06:40.889Z,2.0000
2023-03-29T07:07:42.559Z,2.0000
2023-03-29T07:08:44.202Z,2.0000
2023-03-29T07:09:45.880Z,2.0000
2023-03-29T07:10:47.602Z,2.0000
2023-03-29T07:11:49.168Z,2.0000
2023-03-29T07:12:50.796Z,2.0154
2023-03-29T07:13:52.490Z,2.0923
2023-03-29T07:14:54.147Z,2.1077
2023-03-29T07:15:55.838Z,2.2000
2023-03-29T07:16:57.445Z,2.2000
2023-03-29T07:17:59.181Z,2.1538
2023-03-29T07:19:00.738Z,2.2000
2023-03-29T07:20:02.499Z,2.2000
2023-03-29T07:21:04.154Z,2.2000
2023-03-29T07:22:05.708Z,2.2308
2023-03-29T07:23:07.370Z,2.2308
2023-03-29T07:24:09.007Z,2.2615
2023-03-29T07:25:10.693Z,2.4000
2023-03-29T07:26:12.323Z,2.4000
2023-03-29T07:27:13.977Z,2.2462
2023-03-29T07:28:15.670Z,2.3385
2023-03-29T07:29:17.288Z,2.4000
2023-03-29T07:30:18.942Z,2.4000
2023-03-29T07:31:20.558Z,2.4000
2023-03-29T07:32:22.497Z,2.4000
2023-03-29T07:33:23.998Z,2.4000
2023-03-29T07:34:25.540Z,2.4000
2023-03-29T07:35:27.189Z,2.4000
2023-03-29T07:36:28.870Z,2.4462
2023-03-29T07:37:30.493Z,2.4000
2023-03-29T07:38:32.179Z,2.4000
2023-03-29T07:39:33.797Z,2.4000
2023-03-29T07:40:35.476Z,2.4000
2023-03-29T07:41:37.099Z,2.4154
2023-03-29T07:42:38.792Z,2.4000
2023-03-29T07:43:40.422Z,2.4000
2023-03-29T07:44:42.097Z,2.5077
2023-03-29T07:45:43.743Z,2.5846
2023-03-29T07:46:45.412Z,2.5077
2023-03-29T07:47:47.032Z,2.4000
2023-03-29T07:48:48.696Z,2.4769
2023-03-29T07:49:50.330Z,2.5077
2023-03-29T07:50:52.048Z,2.6000
2023-03-29T07:51:53.635Z,2.6000
2023-03-29T07:52:55.286Z,2.6000
2023-03-29T07:53:56.958Z,2.6923
2023-03-29T07:54:58.589Z,2.6615
2023-03-29T07:56:00.270Z,2.6308
2023-03-29T07:57:01.978Z,2.6000
2023-03-29T07:58:03.548Z,2.6154
2023-03-29T07:59:05.221Z,2.6000
2023-03-29T08:00:06.856Z,2.6923
2023-03-29T08:01:08.639Z,2.6462
2023-03-29T08:02:10.161Z,2.7077
2023-03-29T08:03:11.895Z,2.6154
2023-03-29T08:04:13.534Z,2.6000
2023-03-29T08:05:17.476Z,2.6000
2023-03-29T08:06:16.838Z,2.6000
2023-03-29T08:07:18.967Z,2.7231
2023-03-29T08:08:20.078Z,2.6462
2023-03-29T08:09:21.766Z,2.6000
2023-03-29T08:10:23.384Z,2.6769
2023-03-29T08:11:25.074Z,2.7846
2023-03-29T08:12:26.700Z,2.8000
2023-03-29T08:13:28.362Z,2.8000
2023-03-29T08:14:30.009Z,2.8000
2023-03-29T08:15:31.667Z,2.8000
2023-03-29T08:16:33.406Z,2.8000
2023-03-29T08:17:35.082Z,2.7077
2023-03-29T08:18:36.737Z,2.7692
2023-03-29T08:19:38.290Z,2.8154
2023-03-29T08:20:39.919Z,2.8000
2023-03-29T08:21:41.619Z,2.8000
2023-03-29T08:22:43.228Z,2.7385
2023-03-29T08:23:44.918Z,2.8000
2023-03-29T08:24:46.547Z,2.8000
2023-03-29T08:25:48.247Z,2.8308
2023-03-29T08:26:49.883Z,2.8000
2023-03-29T08:27:51.520Z,2.9692
2023-03-29T08:28:53.157Z,2.9692
2023-03-29T08:29:54.836Z,2.8000
2023-03-29T08:30:56.485Z,2.8154
2023-03-29T08:31:58.159Z,2.8769
2023-03-29T08:32:59.787Z,3.0000
2023-03-29T08:34:01.437Z,2.8462
2023-03-29T08:35:03.078Z,2.8923
2023-03-29T08:36:04.780Z,2.9692
2023-03-29T08:37:06.414Z,2.9538
2023-03-29T08:38:08.067Z,3.0000
2023-03-29T08:39:09.686Z,2.9538
2023-03-29T08:40:11.363Z,3.0000
2023-03-29T08:41:13.000Z,3.2308
2023-03-29T08:42:14.689Z,2.8000
2023-03-29T08:43:16.287Z,2.8154
2023-03-29T08:44:17.974Z,2.8923
2023-03-29T08:45:19.646Z,3.2000
2023-03-29T08:46:21.346Z,3.2000
2023-03-29T08:47:22.933Z,2.3692
2023-03-29T08:48:24.573Z,2.6308
2023-03-29T08:49:26.251Z,2.8000
2023-03-29T08:50:27.888Z,2.8000
2023-03-29T08:51:29.532Z,2.9077
2023-03-29T08:52:31.290Z,2.8615
2023-03-29T08:53:32.858Z,2.9692
2023-03-29T08:54:34.517Z,3.0000
2023-03-29T08:55:36.145Z,2.9385
2023-03-29T08:56:37.835Z,2.9692
2023-03-29T08:57:39.559Z,2.9538
2023-03-29T08:58:41.134Z,2.8000
2023-03-29T08:59:42.743Z,2.8154
2023-03-29T09:00:44.431Z,2.8769
2023-03-29T09:01:48.447Z,2.9077
2023-03-29T09:02:47.829Z,2.9692
2023-03-29T09:03:49.473Z,2.9385
2023-03-29T09:04:51.013Z,3.0000
2023-03-29T09:05:52.649Z,3.0000
2023-03-29T09:06:54.339Z,3.0000
2023-03-29T09:07:55.976Z,3.0462
2023-03-29T09:08:57.633Z,3.0308
2023-03-29T09:09:59.263Z,2.9846
2023-03-29T09:11:01.091Z,3.0308
2023-03-29T09:12:02.570Z,3.0308
2023-03-29T09:13:04.299Z,3.1846
2023-03-29T09:14:05.879Z,3.1231
2023-03-29T09:15:07.549Z,3.2923
2023-03-29T09:16:09.173Z,2.9846
2023-03-29T09:17:10.868Z,3.0154
2023-03-29T09:18:12.556Z,3.1538
2023-03-29T09:19:14.172Z,3.0154
2023-03-29T09:20:15.802Z,3.1231
2023-03-29T09:21:17.462Z,3.1231
2023-03-29T09:22:20.078Z,3.1538
2023-03-29T09:23:20.793Z,3.2000
2023-03-29T09:24:22.423Z,3.1231
2023-03-29T09:25:24.097Z,3.2000
2023-03-29T09:26:25.740Z,3.1538
2023-03-29T09:27:27.393Z,3.1846
2023-03-29T09:28:29.049Z,3.1538
2023-03-29T09:29:30.703Z,3.1692
2023-03-29T09:30:32.360Z,3.2000
2023-03-29T09:31:34.042Z,3.2000
2023-03-29T09:32:35.706Z,3.2308
2023-03-29T09:33:37.406Z,3.2000
2023-03-29T09:34:38.970Z,3.2000
2023-03-29T09:35:40.640Z,3.3077
2023-03-29T09:36:42.269Z,3.4000
2023-03-29T09:37:43.934Z,3.4000
2023-03-29T09:38:45.604Z,3.4000
2023-03-29T09:39:47.267Z,3.3692
2023-03-29T09:40:48.900Z,3.4000
2023-03-29T09:41:50.545Z,3.4000
2023-03-29T09:42:52.331Z,3.4000
2023-03-29T09:43:53.896Z,3.5077
2023-03-29T09:44:55.489Z,3.5385
2023-03-29T09:45:57.238Z,3.5846
2023-03-29T09:46:58.857Z,3.6000
2023-03-29T09:48:00.572Z,3.5538
2023-03-29T09:49:02.169Z,3.6000
2023-03-29T09:50:03.799Z,3.5846
2023-03-29T09:51:05.431Z,3.5846
2023-03-29T09:52:07.075Z,3.6000
2023-03-29T09:53:08.726Z,3.6000
2023-03-29T09:54:10.436Z,3.6000
2023-03-29T09:55:12.030Z,3.6000
2023-03-29T09:56:13.699Z,3.6308
2023-03-29T09:57:15.415Z,3.6154
2023-03-29T09:58:17.026Z,3.6154
2023-03-29T09:59:18.691Z,3.7077
2023-03-29T10:00:20.313Z,3.7385
2023-03-29T10:01:21.949Z,3.7077
2023-03-29T10:02:23.628Z,3.8000
2023-03-29T10:03:25.241Z,3.6000
2023-03-29T10:04:26.992Z,3.6000
2023-03-29T10:05:28.548Z,3.5385
2023-03-29T10:06:30.215Z,3.6308
2023-03-29T10:07:31.852Z,3.5385
2023-03-29T10:08:33.578Z,3.5846
2023-03-29T10:09:35.200Z,3.7538
2023-03-29T10:10:36.889Z,3.6308
2023-03-29T10:11:38.498Z,3.4615
2023-03-29T10:12:40.138Z,3.3846
2023-03-29T10:13:41.777Z,3.2923
2023-03-29T10:14:43.468Z,3.6308
2023-03-29T10:15:45.103Z,3.5231
2023-03-29T10:16:46.874Z,3.4462
2023-03-29T10:17:48.467Z,3.4154
2023-03-29T10:18:50.061Z,3.5231
2023-03-29T10:19:51.741Z,3.5538
2023-03-29T10:20:53.384Z,3.4769
2023-03-29T10:21:55.023Z,3.5538
2023-03-29T10:22:56.674Z,3.6000
2023-03-29T10:23:58.304Z,3.6154
2023-03-29T10:25:00.031Z,3.6000
2023-03-29T10:26:01.625Z,3.6462
2023-03-29T10:27:03.290Z,4.0923
2023-03-29T10:28:04.935Z,6.6923
2023-03-29T10:29:06.594Z,11.3077
2023-03-29T10:30:08.253Z,17.0769
2023-03-29T10:31:09.928Z,27.0769
2023-03-29T10:32:11.574Z,26.6615
2023-03-29T10:33:13.219Z,22.0615
2023-03-29T10:34:14.830Z,22.4154
2023-03-29T10:35:16.536Z,28.2308
2023-03-29T10:36:18.156Z,34.2462
2023-03-29T10:37:19.818Z,31.5385
2023-03-29T10:38:21.486Z,24.4923
2023-03-29T10:39:23.112Z,22.4462
2023-03-29T10:40:24.787Z,22.2769
2023-03-29T10:41:26.414Z,22.2462
2023-03-29T10:42:28.047Z,20.4154
2023-03-29T10:43:29.799Z,16.8769
2023-03-29T10:44:33.174Z,17.0154
2023-03-29T10:45:33.073Z,17.4769
2023-03-29T10:46:34.789Z,18.6769
2023-03-29T10:47:36.361Z,15.2923
2023-03-29T10:48:38.023Z,13.7538
2023-03-29T10:49:39.656Z,16.5692
2023-03-29T10:50:41.367Z,15.6615
2023-03-29T10:51:43.018Z,18.4154
2023-03-29T10:52:44.650Z,24.7846
2023-03-29T10:53:46.325Z,32.8462
2023-03-29T10:54:47.956Z,30.9692
2023-03-29T10:55:49.657Z,24.6154
2023-03-29T10:56:52.558Z,22.0462
2023-03-29T10:57:52.925Z,19.3077
2023-03-29T10:58:54.574Z,20.4000
2023-03-29T10:59:56.218Z,17.8462
2023-03-29T11:00:57.875Z,19.3385
2023-03-29T11:01:59.561Z,20.3077
2023-03-29T11:03:01.217Z,19.9538
2023-03-29T11:04:02.909Z,21.3846
2023-03-29T11:05:04.441Z,22.9231
2023-03-29T11:06:06.141Z,23.5231
2023-03-29T11:07:07.751Z,21.8154
2023-03-29T11:08:09.439Z,21.7231
2023-03-29T11:09:11.054Z,22.2308
2023-03-29T11:10:12.738Z,17.3846
2023-03-29T11:11:14.406Z,16.9692
2023-03-29T11:12:16.659Z,17.8615
2023-03-29T11:13:17.694Z,16.2000
2023-03-29T11:14:19.331Z,16.0308
2023-03-29T11:15:20.950Z,17.0769
2023-03-29T11:16:22.906Z,17.0000
2023-03-29T11:17:24.275Z,16.6154
2023-03-29T11:18:25.929Z,17.0000
2023-03-29T11:19:27.574Z,16.5385
2023-03-29T11:20:29.241Z,16.1538
2023-03-29T11:21:30.897Z,16.0615
2023-03-29T11:22:32.560Z,16.1538
2023-03-29T11:23:34.196Z,16.3538
2023-03-29T11:24:35.875Z,16.8000
2023-03-29T11:25:37.478Z,17.1846
2023-03-29T11:26:39.203Z,17.6769
2023-03-29T11:27:40.787Z,18.3077
2023-03-29T11:28:42.468Z,18.4308
2023-03-29T11:29:44.126Z,18.7538
2023-03-29T11:30:45.798Z,19.1385
2023-03-29T11:31:47.508Z,19.2923
2023-03-29T11:32:49.086Z,19.5077
2023-03-29T11:33:50.713Z,19.6000
2023-03-29T11:34:52.384Z,19.7385
2023-03-29T11:35:54.064Z,19.9231
2023-03-29T11:36:55.727Z,19.8308
2023-03-29T11:37:57.313Z,19.9692
2023-03-29T11:38:58.968Z,20.1692
2023-03-29T11:40:00.611Z,20.2769
2023-03-29T11:41:02.596Z,20.3538
2023-03-29T11:42:03.935Z,20.4615
2023-03-29T11:43:05.576Z,20.5077
2023-03-29T11:44:07.236Z,20.5231
2023-03-29T11:45:08.874Z,20.6769
2023-03-29T11:46:10.523Z,20.6308
2023-03-29T11:47:12.233Z,20.5846
2023-03-29T11:48:13.821Z,20.6000
2023-03-29T11:49:15.489Z,20.5231
2023-03-29T11:50:17.142Z,20.5385
2023-03-29T11:51:18.791Z,21.4000
2023-03-29T11:52:20.468Z,21.4769
2023-03-29T11:53:22.080Z,21.4000
2023-03-29T11:54:23.758Z,21.5538
2023-03-29T11:55:25.398Z,21.9846
2023-03-29T11:56:27.042Z,22.0462
2023-03-29T11:57:28.861Z,20.0000
2023-03-29T11:58:30.344Z,19.1538
2023-03-29T11:59:31.992Z,17.7231
2023-03-29T12:00:33.659Z,18.0462
2023-03-29T12:01:35.299Z,17.7231
2023-03-29T12:02:37.105Z,19.7077
2023-03-29T12:03:38.797Z,16.2923
2023-03-29T12:04:40.297Z,12.6154
2023-03-29T12:05:41.894Z,11.0769
2023-03-29T12:06:43.578Z,10.2923
2023-03-29T12:07:45.237Z,9.6308
2023-03-29T12:08:46.900Z,8.8154
2023-03-29T12:09:48.516Z,8.6615
2023-03-29T12:10:50.192Z,8.5846
2023-03-29T12:11:51.827Z,9.0000
2023-03-29T12:12:53.548Z,6.8462
2023-03-29T12:13:55.148Z,6.6462
2023-03-29T12:14:57.125Z,5.3077
2023-03-29T12:15:58.454Z,4.8000
2023-03-29T12:17:00.158Z,5.5231
2023-03-29T12:18:01.801Z,3.2462
2023-03-29T12:19:03.411Z,3.7846
2023-03-29T12:20:05.077Z,2.6615
2023-03-29T12:21:06.877Z,2.9231
2023-03-29T12:22:08.363Z,2.6462
2023-03-29T12:23:10.071Z,2.6615
2023-03-29T12:24:11.688Z,2.1846
2023-03-29T12:25:14.312Z,2.1692
2023-03-29T12:26:14.987Z,2.1846
2023-03-29T12:27:16.692Z,2.0308
2023-03-29T12:28:18.328Z,2.0462
2023-03-29T12:29:19.976Z,2.2462
2023-03-29T12:30:21.616Z,2.1692
2023-03-29T12:31:23.294Z,2.2000
2023-03-29T12:32:24.978Z,2.1692
2023-03-29T12:33:26.629Z,2.3385
2023-03-29T12:34:28.270Z,2.0462
2023-03-29T12:35:29.913Z,2.0769
2023-03-29T12:36:31.558Z,2.1385
2023-03-29T12:37:33.228Z,2.1385
2023-03-29T12:38:34.890Z,1.9846
2023-03-29T12:39:36.530Z,2.3846
2023-03-29T12:40:38.216Z,2.1385
2023-03-29T12:41:39.855Z,2.1231
2023-03-29T12:42:41.488Z,2.1538
2023-03-29T12:43:43.176Z,2.1692
2023-03-29T12:44:44.793Z,2.1692
2023-03-29T12:45:46.502Z,2.1385